createdAt,value
2023-10-25T00:00:06.185Z,749.1
2023-10-25T00:01:49.584Z,748.4
2023-10-25T00:03:32.973Z,750.6
2023-10-25T00:08:42.212Z,747
2023-10-25T00:10:25.608Z,745.1
2023-10-25T00:12:09.018Z,743.2
2023-10-25T00:13:52.420Z,739.2
2023-10-25T00:15:35.795Z,736.2
2023-10-25T00:17:19.195Z,735.1
2023-10-25T00:19:02.610Z,733.3
2023-10-25T00:20:45.990Z,729.5
2023-10-25T00:22:29.683Z,728.6
2023-10-25T00:24:13.096Z,723.5
2023-10-25T00:25:56.495Z,719.8
2023-10-25T00:27:39.881Z,717.6
2023-10-25T00:29:23.267Z,716.4
2023-10-25T00:31:06.672Z,716.2
2023-10-25T00:32:50.077Z,711.3
2023-10-25T00:37:59.334Z,703.2
2023-10-25T00:39:42.722Z,701.1
2023-10-25T00:41:26.093Z,699.6
2023-10-25T00:43:09.501Z,701.5
2023-10-25T00:44:52.886Z,703.3
2023-10-25T00:46:36.296Z,700.2
2023-10-25T00:48:19.685Z,697
2023-10-25T00:53:28.962Z,691.7
2023-10-25T00:55:12.334Z,692.6
2023-10-25T00:56:55.722Z,690.1
2023-10-25T00:58:39.122Z,689.4
2023-10-25T01:00:22.515Z,691.5
2023-10-25T01:02:05.939Z,687.1
2023-10-25T01:03:49.308Z,685
2023-10-25T01:05:32.699Z,683.1
2023-10-25T01:07:16.421Z,683.9
2023-10-25T01:08:59.841Z,680.4
2023-10-25T01:10:43.207Z,679.8
2023-10-25T01:12:26.600Z,677.6
2023-10-25T01:14:09.995Z,673.5
2023-10-25T01:15:53.388Z,673.8
2023-10-25T01:17:36.806Z,674.6
2023-10-25T01:19:20.187Z,673.8
2023-10-25T01:24:29.440Z,667.6
2023-10-25T01:26:12.846Z,669.5
2023-10-25T01:27:56.235Z,668.7
2023-10-25T01:29:39.618Z,668.5
2023-10-25T01:31:23.036Z,667.4
2023-10-25T01:33:06.426Z,665.8
2023-10-25T01:34:49.815Z,663.7
2023-10-25T01:36:33.214Z,662.5
2023-10-25T01:39:59.680Z,660.5
2023-10-25T01:41:43.069Z,658.1
2023-10-25T01:43:26.471Z,655.1
2023-10-25T01:45:09.878Z,653.1
2023-10-25T01:46:53.268Z,650.5
2023-10-25T01:49:31.134Z,645.2
2023-10-25T01:50:20.066Z,643.7
2023-10-25T01:52:03.465Z,643.6
2023-10-25T01:55:29.937Z,643
2023-10-25T01:57:13.325Z,639.6
2023-10-25T01:58:56.729Z,640.8
2023-10-25T02:00:40.118Z,639.6
2023-10-25T02:02:23.512Z,638.6
2023-10-25T02:04:06.923Z,636.1
2023-10-25T02:05:50.315Z,636.6
2023-10-25T02:07:33.695Z,638.7
2023-10-25T02:11:00.170Z,634.6
2023-10-25T02:12:43.568Z,633.7
2023-10-25T02:14:26.962Z,633.4
2023-10-25T02:16:10.350Z,633.3
2023-10-25T02:17:53.748Z,633.1
2023-10-25T02:19:37.136Z,632.4
2023-10-25T02:21:20.626Z,628.5
2023-10-25T02:26:29.794Z,628.7
2023-10-25T02:28:13.177Z,626.4
2023-10-25T02:29:56.573Z,624.2
2023-10-25T02:31:39.971Z,622.7
2023-10-25T02:33:23.350Z,622
2023-10-25T02:35:06.758Z,622.4
2023-10-25T02:36:50.166Z,622.6
2023-10-25T02:38:33.561Z,621
2023-10-25T02:42:00.036Z,621.2
2023-10-25T02:43:43.427Z,616.7
2023-10-25T02:45:26.826Z,616.2
2023-10-25T02:47:10.209Z,615
2023-10-25T02:48:53.598Z,613.4
2023-10-25T02:50:36.993Z,613.3
2023-10-25T02:52:20.408Z,612.8
2023-10-25T02:54:03.805Z,614.1
2023-10-25T02:57:30.291Z,617.3
2023-10-25T02:59:13.656Z,613.5
2023-10-25T03:00:57.056Z,609.4
2023-10-25T03:02:40.467Z,605.4
2023-10-25T03:04:23.854Z,604.2
2023-10-25T03:06:07.256Z,603.4
2023-10-25T03:07:50.652Z,605
2023-10-25T03:09:34.037Z,602.8
2023-10-25T03:13:00.515Z,602.3
2023-10-25T03:14:43.925Z,599.4
2023-10-25T03:16:27.302Z,598.2
2023-10-25T03:18:10.696Z,600
2023-10-25T03:19:54.097Z,599.4
2023-10-25T03:21:37.505Z,598.8
2023-10-25T03:23:20.898Z,597.2
2023-10-25T03:25:04.322Z,595.8
2023-10-25T03:26:48.000Z,598.5
2023-10-25T03:28:31.385Z,596.6
2023-10-25T03:30:14.788Z,595
2023-10-25T03:31:58.198Z,592.4
2023-10-25T03:33:41.582Z,592.1
2023-10-25T03:35:24.982Z,592.8
2023-10-25T03:37:08.365Z,593.1
2023-10-25T03:38:51.771Z,593.8
2023-10-25T03:44:01.009Z,592.9
2023-10-25T03:45:44.417Z,593
2023-10-25T03:47:27.812Z,591
2023-10-25T03:49:11.217Z,590.1
2023-10-25T03:50:54.606Z,586.6
2023-10-25T03:52:37.997Z,586.5
2023-10-25T03:54:21.378Z,587.7
2023-10-25T03:56:04.792Z,586.7
2023-10-25T03:59:31.246Z,588.3
2023-10-25T04:01:14.659Z,587.7
2023-10-25T04:02:58.054Z,586.2
2023-10-25T04:04:41.434Z,583.6
2023-10-25T04:06:24.838Z,583.3
2023-10-25T04:08:08.246Z,581.4
2023-10-25T04:09:51.632Z,578.2
2023-10-25T04:11:35.016Z,577
2023-10-25T04:18:27.682Z,578.4
2023-10-25T04:20:11.060Z,578.7
2023-10-25T04:21:54.462Z,578.4
2023-10-25T04:23:37.862Z,578.7
2023-10-25T04:25:21.256Z,579.6
2023-10-25T04:27:04.645Z,577.3
2023-10-25T04:28:48.044Z,575.8
2023-10-25T04:32:14.517Z,576.2
2023-10-25T04:33:57.909Z,577.8
2023-10-25T04:35:41.301Z,578.4
2023-10-25T04:37:24.710Z,580.5
2023-10-25T04:39:08.094Z,581.3
2023-10-25T04:40:51.489Z,580.2
2023-10-25T04:42:34.894Z,578.3
2023-10-25T04:44:18.274Z,578.2
2023-10-25T04:47:44.747Z,574.8
2023-10-25T04:49:28.157Z,573.3
2023-10-25T04:51:11.541Z,570.8
2023-10-25T04:52:54.942Z,572.2
2023-10-25T04:54:38.345Z,572.4
2023-10-25T04:56:21.732Z,573.6
2023-10-25T04:58:05.115Z,575
2023-10-25T04:59:48.535Z,576.3
2023-10-25T05:04:57.763Z,583.8
2023-10-25T05:06:41.160Z,618.6
2023-10-25T05:08:24.566Z,634.1
2023-10-25T05:10:07.960Z,630.6
2023-10-25T05:11:51.339Z,626.4
2023-10-25T05:13:34.742Z,616.4
2023-10-25T05:15:18.148Z,616.2
2023-10-25T05:17:01.521Z,621
2023-10-25T05:22:10.773Z,655.2
2023-10-25T05:23:54.183Z,645.3
2023-10-25T05:25:37.554Z,642.6
2023-10-25T05:27:20.961Z,637.1
2023-10-25T05:29:04.352Z,623.3
2023-10-25T05:30:47.766Z,606.5
2023-10-25T05:32:31.158Z,590.4
2023-10-25T05:34:14.548Z,556.4
2023-10-25T05:37:41.025Z,525.3
2023-10-25T05:39:24.422Z,520.4
2023-10-25T05:41:07.808Z,515.6
2023-10-25T05:42:51.223Z,510.5
2023-10-25T05:44:34.622Z,506.6
2023-10-25T05:46:18.007Z,502.7
2023-10-25T05:48:01.409Z,494
2023-10-25T05:49:44.800Z,488.2
2023-10-25T05:51:28.200Z,479.7
2023-10-25T05:53:11.912Z,473.1
2023-10-25T05:54:55.311Z,477.6
2023-10-25T05:56:38.689Z,479.1
2023-10-25T05:58:22.082Z,476.2
2023-10-25T06:00:05.479Z,482.3
2023-10-25T06:01:48.885Z,483.5
2023-10-25T06:03:32.278Z,482.2
2023-10-25T06:05:15.673Z,480.7
2023-10-25T06:06:59.076Z,479.1
2023-10-25T06:08:42.776Z,479
2023-10-25T06:10:26.177Z,483.7
2023-10-25T06:12:09.617Z,484
2023-10-25T06:13:52.961Z,492.2
2023-10-25T06:15:36.356Z,492.5
2023-10-25T06:17:19.753Z,492.3
2023-10-25T06:19:03.155Z,502.7
2023-10-25T06:20:46.538Z,504.7
2023-10-25T06:25:55.781Z,524
2023-10-25T06:27:39.221Z,531
2023-10-25T06:29:22.576Z,537.3
2023-10-25T06:31:05.970Z,529.6
2023-10-25T06:34:32.774Z,454.8
2023-10-25T06:36:16.164Z,443.5
2023-10-25T06:37:59.557Z,438.8
2023-10-25T06:43:08.796Z,425.3
2023-10-25T06:44:52.189Z,423.3
2023-10-25T06:46:35.591Z,421.5
2023-10-25T06:48:18.985Z,418.8
2023-10-25T06:50:02.383Z,414.8
2023-10-25T06:51:45.905Z,413.6
2023-10-25T06:53:29.183Z,417.2
2023-10-25T06:55:12.565Z,420.7
2023-10-25T08:49:58.484Z,525.7
2023-10-25T08:51:41.862Z,568.7
2023-10-25T08:53:25.279Z,571.2
2023-10-25T08:55:08.971Z,574.2
2023-10-25T08:56:52.367Z,563.4
2023-10-25T08:58:35.760Z,556.3
2023-10-25T09:00:19.188Z,558.4
2023-10-25T09:02:02.562Z,556.4
2023-10-25T09:03:45.970Z,550.8
2023-10-25T09:05:29.332Z,550.5
2023-10-25T09:07:12.749Z,549.1
2023-10-25T09:10:39.210Z,540.2
2023-10-25T09:12:22.620Z,537.4
2023-10-25T09:14:05.999Z,535.3
2023-10-25T09:15:49.414Z,534.6
2023-10-25T09:17:32.808Z,532.8
2023-10-25T09:19:16.209Z,531
2023-10-25T09:20:59.607Z,529.5
2023-10-25T09:22:42.994Z,528.5
2023-10-25T09:24:26.707Z,529.2
2023-10-25T09:26:10.109Z,530.6
2023-10-25T09:27:53.482Z,524.6
2023-10-25T09:29:36.918Z,512.8
2023-10-25T09:31:20.285Z,504.5
2023-10-25T09:33:03.688Z,495.1
2023-10-25T09:36:30.491Z,486.5
2023-10-25T09:39:56.965Z,479.9
2023-10-25T09:41:40.351Z,479.5
2023-10-25T09:43:23.757Z,479
2023-10-25T09:45:07.139Z,479.6
2023-10-25T09:46:50.547Z,479
2023-10-25T09:48:33.929Z,478.4
2023-10-25T09:50:17.336Z,482.3
2023-10-25T09:52:00.734Z,499.7
2023-10-25T09:53:44.445Z,540.1
2023-10-25T09:55:27.827Z,543.6
2023-10-25T09:57:11.226Z,534.1
2023-10-25T09:58:54.618Z,523.1
2023-10-25T10:00:38.018Z,520.6
2023-10-25T10:02:21.453Z,520
2023-10-25T10:04:04.816Z,519.4
2023-10-25T10:09:14.673Z,525.7
2023-10-25T10:10:58.071Z,521.4
2023-10-25T10:12:41.481Z,496.6
2023-10-25T10:14:24.887Z,466.7
2023-10-25T10:16:08.272Z,466.6
2023-10-25T10:17:51.658Z,474.4
2023-10-25T10:19:35.060Z,479.1
2023-10-25T10:21:18.452Z,477.8
2023-10-25T10:23:02.178Z,474.1
2023-10-25T10:24:45.567Z,470.6
2023-10-25T10:26:28.940Z,468.8
2023-10-25T10:28:12.355Z,466
2023-10-25T10:29:55.753Z,466.6
2023-10-25T10:31:39.155Z,468.6
2023-10-25T10:33:22.544Z,471.6
2023-10-25T10:35:05.945Z,471.8
2023-10-25T10:38:32.401Z,472
2023-10-25T10:40:15.789Z,475.1
2023-10-25T10:41:59.208Z,482.7
2023-10-25T10:43:42.593Z,491.7
2023-10-25T10:45:25.984Z,499.1
2023-10-25T10:47:09.397Z,502.5
2023-10-25T10:48:52.790Z,503.5
2023-10-25T10:50:36.179Z,504.5
2023-10-25T10:54:02.643Z,511.4
2023-10-25T10:55:46.042Z,512.1
2023-10-25T10:57:29.450Z,511.4
2023-10-25T10:59:12.858Z,511
2023-10-25T11:00:56.245Z,516.2
2023-10-25T11:02:39.646Z,547.1
2023-10-25T11:04:23.030Z,573.7
2023-10-25T11:06:06.448Z,581.6
2023-10-25T11:07:50.137Z,581.2
2023-10-25T11:09:33.515Z,587.2
2023-10-25T11:11:16.941Z,603.7
2023-10-25T11:13:00.319Z,604.8
2023-10-25T11:14:43.731Z,611.1
2023-10-25T11:16:27.117Z,656.8
2023-10-25T11:18:10.522Z,689
2023-10-25T11:19:53.905Z,687.3
2023-10-25T11:23:20.376Z,667.7
2023-10-25T11:25:03.786Z,662.3
2023-10-25T11:26:47.173Z,659.4
2023-10-25T11:28:30.576Z,655.8
2023-10-25T11:30:13.983Z,655.8
2023-10-25T11:31:57.394Z,661.7
2023-10-25T11:33:40.761Z,669.8
2023-10-25T11:35:24.217Z,669.4
2023-10-25T11:37:07.869Z,664.6
2023-10-25T11:38:51.261Z,656.4
2023-10-25T11:40:34.662Z,650.4
2023-10-25T11:42:18.058Z,650.8
2023-10-25T11:44:01.453Z,652.1
2023-10-25T11:45:44.846Z,655.8
2023-10-25T11:47:28.242Z,661.1
2023-10-25T11:49:11.647Z,665.8
2023-10-25T11:52:38.116Z,661.3
2023-10-25T11:54:21.530Z,663.6
2023-10-25T11:56:04.913Z,669
2023-10-25T11:57:48.318Z,673.1
2023-10-25T11:59:31.715Z,671
2023-10-25T12:01:15.115Z,667.6
2023-10-25T12:02:58.552Z,666.7
2023-10-25T12:04:41.914Z,666.4
2023-10-25T12:06:25.609Z,664.6
2023-10-25T12:08:09.069Z,664.5
2023-10-25T12:09:52.400Z,665.1
2023-10-25T12:11:35.800Z,665.2
2023-10-25T12:13:19.207Z,667
2023-10-25T12:15:02.594Z,668.8
2023-10-25T12:16:46.003Z,669.2
2023-10-25T12:18:29.376Z,667.5
2023-10-25T12:21:55.892Z,668.5
2023-10-25T12:23:39.251Z,672.3
2023-10-25T12:25:22.655Z,679.1
2023-10-25T12:27:06.041Z,680.8
2023-10-25T12:28:49.453Z,681.1
2023-10-25T12:30:32.969Z,680.4
2023-10-25T12:32:16.244Z,681.5
2023-10-25T12:37:25.499Z,681.7
2023-10-25T12:39:08.872Z,682.8
2023-10-25T12:40:52.284Z,683.1
2023-10-25T12:42:35.672Z,685.8
2023-10-25T12:44:19.059Z,684.2
2023-10-25T12:46:02.460Z,683
2023-10-25T12:47:45.878Z,682.7
2023-10-25T12:54:38.489Z,685.5
2023-10-25T12:56:21.895Z,683.7
2023-10-25T12:58:05.293Z,685.2
2023-10-25T12:59:48.683Z,684.2
2023-10-25T13:01:32.095Z,680.8
2023-10-25T13:03:15.484Z,679.1
2023-10-25T13:04:58.884Z,678.2
2023-10-25T13:08:25.373Z,678.2
2023-10-25T13:10:08.786Z,677.1
2023-10-25T13:11:52.147Z,675.3
2023-10-25T13:13:35.548Z,674.6
2023-10-25T13:15:18.958Z,676.2
2023-10-25T13:17:02.343Z,676.4
2023-10-25T13:18:45.867Z,676
2023-10-25T13:23:54.973Z,683.5
2023-10-25T13:25:38.404Z,685.3
2023-10-25T13:27:21.773Z,684.1
2023-10-25T13:29:05.182Z,681.6
2023-10-25T13:30:48.578Z,680.5
2023-10-25T13:32:31.959Z,678.5
2023-10-25T13:34:15.349Z,678.2
2023-10-25T13:39:24.618Z,683.2
2023-10-25T13:41:08.007Z,687.6
2023-10-25T13:42:51.403Z,694.1
2023-10-25T13:44:34.801Z,691.1
2023-10-25T13:46:18.191Z,686
2023-10-25T13:48:01.598Z,682.1
2023-10-25T13:49:44.992Z,680
2023-10-25T13:53:11.471Z,647.7
2023-10-25T13:54:54.861Z,634.1
2023-10-25T13:56:38.348Z,618.6
2023-10-25T13:58:21.686Z,609
2023-10-25T14:00:05.052Z,603.8
2023-10-25T14:01:48.538Z,599
2023-10-25T14:03:32.018Z,593.8
2023-10-25T14:08:41.296Z,593
2023-10-25T14:10:24.658Z,588.4
2023-10-25T14:12:15.684Z,585
2023-10-25T14:13:51.268Z,581
2023-10-25T14:15:34.896Z,579.6
2023-10-25T14:17:18.396Z,596.5
2023-10-25T14:19:01.792Z,623.2
2023-10-25T14:22:28.110Z,604.8
2023-10-25T14:24:11.522Z,597.2
2023-10-25T14:25:54.779Z,597.8
2023-10-25T14:27:38.415Z,596.8
2023-10-25T14:29:21.832Z,602.5
2023-10-25T14:31:05.164Z,638.4
2023-10-25T14:34:32.015Z,642.3
2023-10-25T14:37:58.337Z,643.3
2023-10-25T14:39:41.680Z,656.7
2023-10-25T14:41:24.983Z,665.3
2023-10-25T14:43:08.597Z,677.8
2023-10-25T14:44:52.043Z,691.1
2023-10-25T14:46:35.173Z,712.7
2023-10-25T14:48:18.764Z,722
2023-10-25T14:53:27.948Z,705.3
2023-10-25T14:55:11.413Z,704.8
2023-10-25T14:56:54.837Z,714.6
2023-10-25T14:58:38.314Z,723.5
2023-10-25T15:00:21.719Z,728.7
2023-10-25T15:02:05.084Z,729.1
2023-10-25T15:03:48.538Z,730
2023-10-25T15:07:14.993Z,733.2
2023-10-25T15:08:58.272Z,729.3
2023-10-25T15:10:41.444Z,723.8
2023-10-25T15:12:25.024Z,719.7
2023-10-25T15:14:08.512Z,719
2023-10-25T15:15:51.934Z,720.3
2023-10-25T15:17:35.290Z,720.6
2023-10-25T15:22:44.283Z,725
2023-10-25T15:24:27.906Z,722.1
2023-10-25T15:26:11.483Z,713.7
2023-10-25T15:27:54.741Z,707.8
2023-10-25T15:29:38.209Z,701.8
2023-10-25T15:31:21.649Z,689.8
2023-10-25T15:33:04.941Z,682.4
2023-10-25T15:34:48.678Z,674.7
2023-10-25T15:36:32.133Z,672.5
2023-10-25T15:38:15.164Z,672.1
2023-10-25T15:39:58.571Z,670.3
2023-10-25T15:41:41.996Z,666.5
2023-10-25T15:43:25.346Z,666.6
2023-10-25T15:45:08.867Z,667.7
2023-10-25T15:48:35.253Z,670.8
2023-10-25T15:50:18.717Z,675
2023-10-25T15:52:02.120Z,681.7
2023-10-25T15:53:45.417Z,686.1
2023-10-25T15:55:28.890Z,689.7
2023-10-25T15:57:12.331Z,689.4
2023-10-25T15:58:55.715Z,686.3
2023-10-25T16:00:39.088Z,684.5
2023-10-25T16:02:22.816Z,685.4
2023-10-25T16:04:06.364Z,686.1
2023-10-25T16:05:49.546Z,689.6
2023-10-25T16:07:33.069Z,691.5
2023-10-25T16:09:16.498Z,692
2023-10-25T16:10:59.702Z,701.2
2023-10-25T16:12:43.368Z,709.7
2023-10-25T16:17:52.681Z,728.3
2023-10-25T16:19:35.757Z,735.7
2023-10-25T16:21:19.379Z,747.1
2023-10-25T16:23:02.830Z,752.7
2023-10-25T16:24:46.247Z,757.4
2023-10-25T16:26:30.158Z,762.1
2023-10-25T16:28:12.969Z,770.2
2023-10-25T16:31:39.208Z,804.7
2023-10-25T16:33:22.897Z,811
2023-10-25T16:35:06.293Z,811.2
2023-10-25T16:36:49.410Z,811
2023-10-25T16:38:32.794Z,812.4
2023-10-25T16:40:16.553Z,813.2
2023-10-25T16:42:00.025Z,816.3
2023-10-25T16:43:43.358Z,819.2
2023-10-25T16:45:26.896Z,821.4
2023-10-25T16:47:10.390Z,826.8
2023-10-25T16:48:53.602Z,832
2023-10-25T16:50:37.096Z,837.5
2023-10-25T16:52:20.652Z,849.2
2023-10-25T16:55:47.119Z,855.6
2023-10-25T16:57:30.564Z,864.5
2023-10-25T16:59:14.482Z,868.5
2023-10-25T17:00:57.777Z,873.6
2023-10-25T17:02:41.160Z,876.7
2023-10-25T17:04:24.453Z,877.2
2023-10-25T17:06:07.769Z,878.8
2023-10-25T17:07:51.300Z,880.6
2023-10-25T17:09:34.809Z,883.2
2023-10-25T17:14:43.797Z,903.4
2023-10-25T17:16:27.558Z,906.5
2023-10-25T17:18:10.863Z,909.8
2023-10-25T17:19:54.043Z,911.4
2023-10-25T17:21:37.386Z,916.5
2023-10-25T17:23:20.862Z,917.5
2023-10-25T17:25:04.503Z,918.4
2023-10-25T17:28:31.012Z,923.9
2023-10-25T17:30:14.182Z,926.1
2023-10-25T17:31:57.468Z,926.3
2023-10-25T17:33:41.049Z,926.5
2023-10-25T17:35:24.546Z,930.1
2023-10-25T17:37:07.946Z,933
2023-10-25T17:38:51.252Z,939.7
2023-10-25T17:42:17.638Z,952.4
2023-10-25T17:44:01.339Z,956
2023-10-25T17:45:44.385Z,956.6
2023-10-25T17:47:27.832Z,956.5
2023-10-25T17:49:11.428Z,959.6
2023-10-25T17:50:54.877Z,962.7
2023-10-25T17:54:21.621Z,962.4
2023-10-25T17:57:47.760Z,959
2023-10-25T17:59:31.348Z,958.2
2023-10-25T18:01:14.540Z,953.3
2023-10-25T18:02:57.942Z,951.1
2023-10-25T18:06:25.010Z,951.4
2023-10-25T18:08:08.159Z,949.5
2023-10-25T18:09:51.770Z,948.8
2023-10-25T18:11:35.236Z,949.9
2023-10-25T18:13:18.833Z,953.4
2023-10-25T18:15:02.037Z,954.8
2023-10-25T18:16:45.436Z,955.2
2023-10-25T18:18:28.820Z,955.8
2023-10-25T18:20:12.220Z,956.1
2023-10-25T18:21:55.746Z,954.8
2023-10-25T18:23:39.021Z,957.7
2023-10-25T18:25:23.064Z,959.2
2023-10-25T18:27:06.472Z,960
2023-10-25T18:28:49.643Z,962.2
2023-10-25T18:30:33.228Z,961.8
2023-10-25T18:32:16.510Z,962.7
2023-10-25T18:33:59.782Z,964.4
2023-10-25T18:35:43.142Z,966.3
2023-10-25T18:37:26.773Z,963.8
2023-10-25T18:40:53.270Z,970.2
2023-10-25T18:42:36.583Z,973.3
2023-10-25T18:44:20.168Z,971.8
2023-10-25T18:46:03.266Z,971.8
2023-10-25T18:47:46.778Z,973.7
2023-10-25T18:49:30.397Z,974.6
2023-10-25T18:51:13.365Z,973.2
2023-10-25T18:52:57.069Z,972
2023-10-25T18:56:23.589Z,974.4
2023-10-25T18:58:06.952Z,980.4
2023-10-25T18:59:50.307Z,985.7
2023-10-25T19:01:33.705Z,993.6
2023-10-25T19:03:16.800Z,996.4
2023-10-25T19:06:18.661Z,1001.1
2023-10-25T19:06:43.600Z,1003.7
2023-10-25T19:10:10.251Z,1012.7
2023-10-25T19:11:53.538Z,1013.6
2023-10-25T19:13:37.230Z,1016.2
2023-10-25T19:15:20.567Z,1017.7
2023-10-25T19:17:03.976Z,1020.8
2023-10-25T19:18:47.399Z,1022.3
2023-10-25T19:20:30.790Z,1024.8
2023-10-25T19:23:57.226Z,1025.6
2023-10-25T19:25:40.677Z,1023.2
2023-10-25T19:27:24.001Z,1019.2
2023-10-25T19:29:07.457Z,1017
2023-10-25T19:30:50.757Z,1016
2023-10-25T19:32:34.242Z,1016.1
2023-10-25T19:34:17.628Z,1013.7
2023-10-25T19:37:44.084Z,1013.2
2023-10-25T19:39:27.544Z,1011.1
2023-10-25T19:41:10.810Z,1008.7
2023-10-25T19:42:54.308Z,1008.4
2023-10-25T19:44:37.737Z,1005.8
2023-10-25T19:46:21.092Z,1002.7
2023-10-25T19:48:04.459Z,998.3
2023-10-25T19:49:47.627Z,994.2
2023-10-25T19:51:31.615Z,995.1
2023-10-25T19:53:15.044Z,996.5
2023-10-25T19:54:58.420Z,993.7
2023-10-25T19:56:41.541Z,996
2023-10-25T19:58:25.165Z,997.1
2023-10-25T20:00:08.489Z,1003
2023-10-25T20:01:51.930Z,1006.5
2023-10-25T20:05:18.455Z,1024
2023-10-25T20:07:01.857Z,1091.4
2023-10-25T20:08:45.060Z,1106.7
2023-10-25T20:10:28.705Z,1136
2023-10-25T20:12:12.024Z,1144.6
2023-10-25T20:13:55.182Z,1141.8
2023-10-25T20:15:38.783Z,1132.8
2023-10-25T20:17:22.211Z,1056.3
2023-10-25T20:19:05.881Z,1029.7
2023-10-25T20:20:49.356Z,1021.2
2023-10-25T20:22:32.726Z,1019.3
2023-10-25T20:24:16.150Z,1015.4
2023-10-25T20:25:59.418Z,1013.7
2023-10-25T20:27:42.544Z,1011.2
2023-10-25T20:29:26.122Z,1010.1
2023-10-25T20:31:09.671Z,1007.8
2023-10-25T20:32:53.416Z,1005.3
2023-10-25T20:34:36.431Z,1003
2023-10-25T20:36:20.140Z,999.3
2023-10-25T20:38:03.633Z,994.3
2023-10-25T20:39:47.012Z,992.2
2023-10-25T20:41:30.315Z,994.6
2023-10-25T20:43:13.661Z,988.7
2023-10-25T20:46:40.008Z,983.3
2023-10-25T20:48:23.681Z,978.3
2023-10-25T20:50:06.946Z,974.4
2023-10-25T20:51:50.427Z,973.4
2023-10-25T20:53:33.817Z,971.7
2023-10-25T20:55:17.164Z,972.4
2023-10-25T20:57:00.665Z,981.6
2023-10-25T21:00:27.109Z,997.9
2023-10-25T21:02:10.545Z,1004.4
2023-10-25T21:03:53.899Z,1006.8
2023-10-25T21:05:37.180Z,1007.3
2023-10-25T21:07:20.697Z,1011.3
2023-10-25T21:09:04.087Z,1011
2023-10-25T21:10:47.688Z,1008.7
2023-10-25T21:15:56.781Z,996
2023-10-25T21:17:39.895Z,991.7
2023-10-25T21:19:23.436Z,991.5
2023-10-25T21:21:06.717Z,990.3
2023-10-25T21:22:50.009Z,986.4
2023-10-25T21:24:33.702Z,984.7
2023-10-25T21:26:16.757Z,982.7
2023-10-25T21:29:43.228Z,981.6
2023-10-25T21:31:26.898Z,978.8
2023-10-25T21:33:10.405Z,975.5
2023-10-25T21:34:53.717Z,971.4
2023-10-25T21:36:37.121Z,968.1
2023-10-25T21:38:20.538Z,972.7
2023-10-25T21:40:03.923Z,975.8
2023-10-25T21:43:30.378Z,986.5
2023-10-25T21:45:13.826Z,985.8
2023-10-25T21:46:57.257Z,990.2
2023-10-25T21:48:40.767Z,992.7
2023-10-25T21:50:23.902Z,995.5
2023-10-25T21:52:07.428Z,994
2023-10-25T21:53:50.743Z,994
2023-10-25T21:59:11.636Z,986.8
2023-10-25T22:00:43.404Z,986.1
2023-10-25T22:02:27.084Z,983
2023-10-25T22:04:10.199Z,980.4
2023-10-25T22:05:53.616Z,977.5
2023-10-25T22:07:37.011Z,976.7
2023-10-25T22:09:20.432Z,976.1
2023-10-25T22:12:46.921Z,973.9
2023-10-25T22:14:29.975Z,973.5
2023-10-25T22:16:13.684Z,977.3
2023-10-25T22:17:57.008Z,978.5
2023-10-25T22:19:40.471Z,979.6
2023-10-25T22:21:23.807Z,979
2023-10-25T22:23:06.957Z,979.1
2023-10-25T22:24:50.546Z,981
2023-10-25T22:26:34.541Z,974.9
2023-10-25T22:28:17.442Z,973.8
2023-10-25T22:30:00.878Z,972.8
2023-10-25T22:31:44.527Z,970.6
2023-10-25T22:33:27.628Z,965.8
2023-10-25T22:35:11.420Z,964.3
2023-10-25T22:36:54.785Z,966.2
2023-10-25T22:40:21.249Z,962.2
2023-10-25T22:42:04.646Z,959.3
2023-10-25T22:43:48.014Z,959.6
2023-10-25T22:45:31.106Z,958
2023-10-25T22:47:14.737Z,955.3
2023-10-25T22:48:58.197Z,953.6
2023-10-25T22:50:41.339Z,954.4
2023-10-25T22:52:25.044Z,955.2
2023-10-25T22:54:08.633Z,956.8
2023-10-25T22:55:51.899Z,958.7
2023-10-25T22:57:35.468Z,959.4
2023-10-25T22:59:18.833Z,962.7
2023-10-25T23:01:02.252Z,963.8
2023-10-25T23:02:45.505Z,966.5
2023-10-25T23:04:29.018Z,966.7
2023-10-25T23:06:12.481Z,967.8
2023-10-25T23:07:56.300Z,967.6
2023-10-25T23:09:39.539Z,962.2
2023-10-25T23:11:22.991Z,959.4
2023-10-25T23:13:06.342Z,960.2
2023-10-25T23:14:49.761Z,960.5
2023-10-25T23:16:33.139Z,958.8
2023-10-25T23:18:16.567Z,958.4
2023-10-25T23:23:25.823Z,959.8
2023-10-25T23:25:09.117Z,963.3
2023-10-25T23:26:52.585Z,961.1
2023-10-25T23:28:35.638Z,961.8
2023-10-25T23:30:19.410Z,962.8
2023-10-25T23:32:02.770Z,966.2
2023-10-25T23:33:45.847Z,967.3
2023-10-25T23:37:12.685Z,965.9
2023-10-25T23:38:56.032Z,964.8
2023-10-25T23:40:39.489Z,963.5
2023-10-25T23:42:22.666Z,962.1
2023-10-25T23:44:06.211Z,961.6
2023-10-25T23:45:49.629Z,963.1
2023-10-25T23:47:32.695Z,960.1
2023-10-25T23:50:59.240Z,957.1
2023-10-25T23:52:42.874Z,955.2
2023-10-25T23:54:30.029Z,958.4
2023-10-25T23:56:09.417Z,960.3
2023-10-25T23:57:53.080Z,959.6
2023-10-25T23:59:36.449Z,960.1
